< Cyclone 198412 1984 Season Cyclone 198414 >
Cyclone 198413 (HARVEY)
General InformationTrack Information on Google MapsDetailed Wind InformationList of All Images || ResourceGoogle EarthGE AnimationAtom FeedGeoJSON
Detalied Best Track (Time Zone = UTC)
Year Month Day Hour Lat. Long. Pressure (hPa) Wind (kt) Class Image Chart
1984 2 3 18 -14.6 152.3 1001 25 2 Image --
1984 2 4 00 -14.9 152.7 1000 25 2 Image --
1984 2 4 06 -15.2 153.1 999 25 2 Image --
1984 2 4 12 -15.6 153.6 1000 25 2 Image --
1984 2 4 18 -15.9 154.0 1000 25 2 Image --
1984 2 5 00 -16.1 154.8 999 30 2 Image --
1984 2 5 06 -16.5 155.6 997 30 2 Image --
1984 2 5 12 -17.5 156.0 994 40 3 Image --
1984 2 5 18 -18.1 156.1 990 45 3 Image --
1984 2 6 00 -18.6 156.2 986 50 4 Image --
1984 2 6 06 -18.9 156.3 985 50 4 Image --
1984 2 6 12 -19.0 156.8 983 55 4 Image --
1984 2 6 18 -19.1 157.5 980 60 4 Image --
1984 2 7 00 -19.7 158.3 980 60 4 Image --
1984 2 7 06 -19.7 159.0 980 60 4 Image --
1984 2 7 12 -19.7 159.6 980 60 4 Image --
1984 2 7 18 -19.8 160.3 984 55 4 Image --
1984 2 8 00 -20.1 160.7 989 45 3 Image --
1984 2 8 06 -20.5 160.9 993 40 3 Image --
1984 2 8 12 -20.7 161.1 995 35 3 Image --
1984 2 8 18 -21.0 161.2 997 30 2 Image --
1984 2 9 00 -21.3 161.4 999 30 2 Image --
1984 2 9 06 -21.6 161.7 1000 30 2 Image --
1984 2 9 12 -21.8 162.5 1000 30 2 Image --
1984 2 9 18 -21.9 163.4 1001 30 2 Image --
< Cyclone 198412 1984 Season Cyclone 198414 >

Help